createdAt,value
2022-08-09T00:00:59.524Z,39.63
2022-08-09T00:04:05.620Z,39.63
2022-08-09T00:06:22.704Z,39.30
2022-08-09T00:08:52.228Z,39.85
2022-08-09T00:11:24.540Z,39.97
2022-08-09T00:13:53.585Z,40.13
2022-08-09T00:16:26.472Z,40.08
2022-08-09T00:19:09.462Z,40.43
2022-08-09T00:21:43.278Z,40.62
2022-08-09T00:24:27.484Z,40.90
2022-08-09T00:26:57.370Z,41.01
2022-08-09T00:30:09.928Z,41.31
2022-08-09T00:32:26.572Z,41.42
2022-08-09T00:34:58.648Z,41.73
2022-08-09T00:37:30.179Z,41.89
2022-08-09T00:40:09.229Z,41.95
2022-08-09T00:44:14.339Z,42.10
2022-08-09T00:45:26.878Z,42.31
2022-08-09T00:47:55.706Z,42.53
2022-08-09T00:50:25.321Z,42.78
2022-08-09T00:52:55.666Z,42.67
2022-08-09T00:56:03.126Z,43.20
2022-08-09T00:58:14.686Z,42.86
2022-08-09T01:00:54.549Z,43.00
2022-08-09T01:03:45.582Z,43.66
2022-08-09T01:06:53.763Z,44.08
2022-08-09T01:09:46.925Z,43.62
2022-08-09T01:12:30.820Z,44.38
2022-08-09T01:15:10.047Z,44.26
2022-08-09T01:18:00.330Z,44.86
2022-08-09T01:20:37.700Z,44.65
2022-08-09T01:24:00.415Z,45.11
2022-08-09T01:26:23.561Z,44.81
2022-08-09T01:28:57.431Z,44.95
2022-08-09T01:32:29.213Z,44.89
2022-08-09T01:34:21.150Z,45.21
2022-08-09T01:36:50.965Z,45.58
2022-08-09T01:39:23.269Z,45.63
2022-08-09T01:41:53.500Z,45.75
2022-08-09T01:44:30.638Z,45.91
2022-08-09T01:47:01.970Z,45.62
2022-08-09T01:49:39.300Z,45.96
2022-08-09T01:52:15.930Z,46.13
2022-08-09T01:54:55.046Z,46.41
2022-08-09T01:57:46.701Z,46.31
2022-08-09T02:00:35.856Z,46.36
2022-08-09T02:03:07.411Z,46.69
2022-08-09T02:06:03.315Z,46.87
2022-08-09T02:08:40.658Z,47.22
2022-08-09T02:11:23.702Z,47.71
2022-08-09T02:14:02.159Z,47.96
2022-08-09T02:16:58.984Z,47.69
2022-08-09T02:19:38.648Z,47.98
2022-08-09T02:22:36.485Z,48.18
2022-08-09T02:25:11.171Z,48.45
2022-08-09T02:28:00.092Z,48.82
2022-08-09T02:30:34.067Z,48.89
2022-08-09T02:33:03.930Z,48.81
2022-08-09T02:36:01.791Z,49.50
2022-08-09T02:38:34.929Z,49.74
2022-08-09T02:41:11.605Z,49.87
2022-08-09T02:43:55.038Z,50.04
2022-08-09T02:46:30.864Z,49.97
2022-08-09T02:49:06.001Z,50.61
2022-08-09T02:51:40.594Z,50.98
2022-08-09T02:54:14.231Z,50.80
2022-08-09T02:56:51.694Z,51.23
2022-08-09T02:59:36.267Z,51.05
2022-08-09T03:02:16.778Z,51.33
2022-08-09T03:04:50.710Z,51.26
2022-08-09T03:07:21.079Z,51.71
2022-08-09T03:09:54.498Z,51.98
2022-08-09T03:12:27.446Z,52.23
2022-08-09T03:14:57.695Z,52.43
2022-08-09T03:17:27.767Z,52.63
2022-08-09T03:20:03.466Z,52.46
2022-08-09T03:22:43.758Z,53.50
2022-08-09T03:25:26.446Z,53.33
2022-08-09T03:28:05.199Z,53.69
2022-08-09T03:30:40.081Z,53.66
2022-08-09T03:33:19.050Z,53.48
2022-08-09T03:36:12.401Z,53.79
2022-08-09T03:38:44.928Z,54.07
2022-08-09T03:41:16.273Z,53.90
2022-08-09T03:44:03.169Z,54.05
2022-08-09T03:46:35.256Z,54.57
2022-08-09T03:49:07.865Z,54.28
2022-08-09T03:51:56.819Z,54.40
2022-08-09T03:54:34.702Z,54.83
2022-08-09T03:57:18.270Z,54.75
2022-08-09T03:59:56.147Z,54.86
2022-08-09T04:02:32.430Z,55.12
2022-08-09T04:05:06.487Z,55.14
2022-08-09T04:07:53.581Z,55.33
2022-08-09T04:10:29.595Z,55.52
2022-08-09T04:13:11.600Z,55.40
2022-08-09T04:16:17.771Z,55.45
2022-08-09T04:18:29.364Z,55.56
2022-08-09T04:20:57.840Z,55.95
2022-08-09T04:23:26.311Z,55.95
2022-08-09T04:25:56.231Z,56.02
2022-08-09T04:28:33.301Z,56.26
2022-08-09T04:31:09.790Z,56.40
2022-08-09T04:33:52.406Z,56.46
2022-08-09T04:36:28.738Z,56.52
2022-08-09T04:39:00.240Z,56.97
2022-08-09T04:41:32.881Z,56.92
2022-08-09T04:44:06.703Z,57.03
2022-08-09T04:46:58.136Z,57.67
2022-08-09T04:49:53.846Z,58.18
2022-08-09T04:52:29.708Z,57.86
2022-08-09T04:55:01.413Z,57.85
2022-08-09T04:57:53.957Z,57.99
2022-08-09T05:00:19.580Z,58.10
2022-08-09T05:02:52.690Z,57.96
2022-08-09T05:05:31.441Z,58.05
2022-08-09T05:08:14.078Z,58.15
2022-08-09T05:10:43.628Z,58.01
2022-08-09T05:13:14.332Z,58.29
2022-08-09T05:15:47.682Z,58.47
2022-08-09T05:18:38.601Z,58.71
2022-08-09T05:21:10.025Z,58.63
2022-08-09T05:23:54.427Z,58.90
2022-08-09T05:26:37.211Z,58.98
2022-08-09T05:29:21.325Z,59.10
2022-08-09T05:31:57.435Z,59.04
2022-08-09T05:34:32.313Z,59.53
2022-08-09T05:37:05.903Z,59.33
2022-08-09T05:39:42.532Z,59.47
2022-08-09T05:42:17.937Z,59.62
2022-08-09T05:44:56.885Z,59.51
2022-08-09T05:47:27.097Z,59.45
2022-08-09T05:50:24.021Z,59.67
2022-08-09T05:52:53.893Z,59.95
2022-08-09T05:55:24.235Z,59.94
2022-08-09T05:57:56.720Z,60.13
2022-08-09T06:00:29.277Z,60.10
2022-08-09T06:03:02.493Z,60.01
2022-08-09T06:05:58.179Z,60.34
2022-08-09T06:08:24.780Z,60.37
2022-08-09T06:10:58.147Z,60.48
2022-08-09T06:13:28.542Z,60.42
2022-08-09T06:16:04.734Z,60.47
2022-08-09T06:18:34.160Z,60.52
2022-08-09T06:21:04.343Z,60.46
2022-08-09T06:23:55.170Z,60.63
2022-08-09T06:26:28.375Z,60.74
2022-08-09T06:29:01.145Z,60.83
2022-08-09T06:31:40.285Z,61.07
2022-08-09T06:34:26.071Z,60.98
2022-08-09T06:36:57.162Z,60.88
2022-08-09T06:39:48.738Z,60.94
2022-08-09T06:42:24.949Z,61.03
2022-08-09T06:44:57.320Z,61.02
2022-08-09T06:47:25.843Z,60.90
2022-08-09T06:50:13.336Z,61.08
2022-08-09T06:52:48.750Z,61.05
2022-08-09T06:55:23.399Z,61.24
2022-08-09T06:58:03.308Z,61.43
2022-08-09T07:00:50.508Z,61.23
2022-08-09T07:03:28.482Z,61.31
2022-08-09T07:06:04.179Z,61.44
2022-08-09T07:08:39.524Z,61.50
2022-08-09T07:11:08.358Z,61.74
2022-08-09T07:13:45.005Z,61.78
2022-08-09T07:16:42.521Z,61.65
2022-08-09T07:19:18.712Z,61.80
2022-08-09T07:21:57.244Z,61.70
2022-08-09T07:24:32.041Z,61.83
2022-08-09T07:27:02.950Z,61.93
2022-08-09T07:29:37.920Z,62.14
2022-08-09T07:32:08.242Z,62.11
2022-08-09T07:34:36.721Z,62.19
2022-08-09T07:37:05.041Z,62.18
2022-08-09T07:39:41.423Z,62.18
2022-08-09T07:42:10.801Z,62.24
2022-08-09T07:44:51.624Z,62.44
2022-08-09T07:47:23.787Z,62.29
2022-08-09T07:50:08.273Z,62.18
2022-08-09T07:52:38.650Z,62.37
2022-08-09T07:55:08.755Z,62.31
2022-08-09T07:57:47.092Z,62.73
2022-08-09T08:00:35.619Z,62.50
2022-08-09T08:03:08.433Z,62.55
2022-08-09T08:05:54.136Z,62.69
2022-08-09T08:09:00.666Z,62.81
2022-08-09T08:12:11.480Z,63.04
2022-08-09T08:14:04.758Z,63.12
2022-08-09T08:16:35.440Z,63.07
2022-08-09T08:19:08.080Z,63.05
2022-08-09T08:21:39.435Z,63.30
2022-08-09T08:24:11.957Z,63.08
2022-08-09T08:26:56.141Z,63.06
2022-08-09T08:29:27.469Z,63.01
2022-08-09T08:32:03.666Z,63.18
2022-08-09T08:34:34.745Z,63.10
2022-08-09T08:37:06.164Z,63.49
2022-08-09T08:39:44.142Z,63.49
2022-08-09T08:42:13.201Z,63.35
2022-08-09T08:44:44.880Z,63.55
2022-08-09T08:47:17.840Z,63.63
2022-08-09T08:49:46.597Z,63.71
2022-08-09T08:55:13.579Z,63.85
2022-08-09T08:57:43.761Z,64.13
2022-08-09T09:00:27.751Z,63.90
2022-08-09T09:03:11.215Z,64.00
2022-08-09T09:05:58.471Z,64.13
2022-08-09T09:08:38.001Z,64.12
2022-08-09T09:11:17.316Z,64.27
2022-08-09T09:13:56.397Z,64.22
2022-08-09T09:16:34.063Z,64.17
2022-08-09T09:22:16.875Z,64.65
2022-08-09T09:26:02.559Z,64.41
2022-08-09T09:28:05.126Z,64.42
2022-08-09T09:30:40.818Z,64.23
2022-08-09T09:33:15.863Z,64.32
2022-08-09T09:36:01.040Z,64.23
2022-08-09T09:38:58.001Z,64.19
2022-08-09T09:41:33.207Z,64.21
2022-08-09T09:44:12.925Z,64.01
2022-08-09T09:46:45.887Z,63.98
2022-08-09T09:49:56.522Z,64.21
2022-08-09T09:52:16.514Z,64.13
2022-08-09T09:55:16.595Z,64.30
2022-08-09T09:58:19.296Z,64.52
2022-08-09T10:00:55.096Z,64.30
2022-08-09T10:03:56.236Z,64.48
2022-08-09T10:06:26.340Z,64.43
2022-08-09T10:09:22.844Z,64.20
2022-08-09T10:12:11.937Z,64.51
2022-08-09T10:14:47.886Z,64.55
2022-08-09T10:17:54.984Z,64.86
2022-08-09T10:20:29.858Z,64.83
2022-08-09T10:23:20.240Z,64.82
2022-08-09T10:26:07.628Z,64.83
2022-08-09T10:28:40.727Z,64.90
2022-08-09T10:34:10.186Z,64.94
2022-08-09T10:36:57.845Z,64.94
2022-08-09T10:39:28.668Z,65.00
2022-08-09T10:41:57.499Z,65.44
2022-08-09T10:44:31.707Z,65.34
2022-08-09T10:47:04.040Z,65.25
2022-08-09T10:50:14.903Z,65.33
2022-08-09T10:53:10.614Z,65.36
2022-08-09T10:55:57.880Z,65.38
2022-08-09T10:58:33.741Z,65.50
2022-08-09T11:03:02.999Z,65.00
2022-08-09T11:04:31.420Z,65.27
2022-08-09T11:07:03.929Z,65.17
2022-08-09T11:09:48.006Z,65.02
2022-08-09T11:12:30.097Z,65.05
2022-08-09T11:14:59.900Z,64.69
2022-08-09T11:17:28.082Z,64.92
2022-08-09T11:20:22.147Z,64.88
2022-08-09T11:22:56.752Z,64.82
2022-08-09T11:25:45.414Z,64.62
2022-08-09T11:28:38.731Z,64.69
2022-08-09T11:31:48.858Z,64.57
2022-08-09T11:34:32.082Z,64.37
2022-08-09T11:37:01.839Z,64.49
2022-08-09T11:39:37.809Z,64.22
2022-08-09T11:42:14.726Z,64.36
2022-08-09T11:44:49.519Z,64.38
2022-08-09T11:47:17.521Z,64.44
2022-08-09T11:50:56.077Z,64.58
2022-08-09T11:53:57.861Z,64.37
2022-08-09T11:55:52.175Z,64.47
2022-08-09T11:58:30.512Z,64.74
2022-08-09T12:01:37.856Z,64.85
2022-08-09T12:04:10.281Z,65.00
2022-08-09T12:06:57.740Z,64.98
2022-08-09T12:09:33.915Z,64.87
2022-08-09T12:12:12.156Z,65.08
2022-08-09T12:15:08.112Z,64.90
2022-08-09T12:17:42.848Z,65.08
2022-08-09T12:20:24.240Z,65.23
2022-08-09T12:22:58.522Z,65.22
2022-08-09T12:25:36.553Z,65.03
2022-08-09T12:29:10.729Z,65.28
2022-08-09T12:31:58.143Z,65.05
2022-08-09T12:34:17.924Z,64.98
2022-08-09T12:36:59.188Z,64.95
2022-08-09T12:40:00.913Z,64.99
2022-08-09T12:42:30.168Z,64.79
2022-08-09T12:44:59.409Z,64.98
2022-08-09T12:47:37.166Z,64.91
2022-08-09T12:50:23.417Z,64.79
2022-08-09T12:53:09.572Z,65.13
2022-08-09T12:56:14.121Z,64.76
2022-08-09T12:58:30.320Z,64.72
2022-08-09T13:01:00.456Z,65.01
2022-08-09T13:03:57.136Z,64.61
2022-08-09T13:06:34.283Z,64.86
2022-08-09T13:09:06.432Z,64.97
2022-08-09T13:11:39.352Z,64.75
2022-08-09T13:14:40.893Z,64.62
2022-08-09T13:17:08.327Z,64.58
2022-08-09T13:20:10.070Z,64.56
2022-08-09T13:22:36.147Z,64.56
2022-08-09T13:25:17.913Z,64.22
2022-08-09T13:27:54.536Z,64.19
2022-08-09T13:31:11.632Z,64.26
2022-08-09T13:33:24.380Z,64.11
2022-08-09T13:36:37.956Z,64.23
2022-08-09T13:38:57.468Z,64.04
2022-08-09T13:41:58.476Z,64.15
2022-08-09T13:44:17.878Z,64.35
2022-08-09T13:47:19.396Z,64.20
2022-08-09T13:49:56.276Z,64.10
2022-08-09T13:52:27.284Z,64.37
2022-08-09T13:55:00.978Z,64.46
2022-08-09T13:57:40.447Z,64.27
2022-08-09T14:00:18.160Z,64.26
2022-08-09T14:03:04.082Z,64.57
2022-08-09T14:05:59.860Z,64.35
2022-08-09T14:08:29.755Z,64.43
2022-08-09T14:10:59.540Z,64.76
2022-08-09T14:14:23.121Z,64.69
2022-08-09T14:16:28.214Z,64.54
2022-08-09T14:18:58.499Z,64.78
2022-08-09T14:21:29.208Z,64.84
2022-08-09T14:24:01.437Z,64.77
2022-08-09T14:26:39.445Z,65.04
2022-08-09T14:30:15.170Z,65.06
2022-08-09T14:31:58.491Z,65.26
2022-08-09T14:34:34.798Z,65.11
2022-08-09T14:37:07.448Z,64.95
2022-08-09T14:39:40.297Z,65.13
2022-08-09T14:42:30.724Z,65.07
2022-08-09T14:46:38.969Z,64.93
2022-08-09T14:48:00.334Z,64.88
2022-08-09T14:50:34.222Z,64.47
2022-08-09T14:53:11.006Z,64.64
2022-08-09T14:55:41.950Z,64.37
2022-08-09T14:58:11.122Z,64.34
2022-08-09T15:00:42.635Z,64.08
2022-08-09T15:03:20.216Z,64.20
2022-08-09T15:05:54.761Z,63.95
2022-08-09T15:08:30.503Z,63.95
2022-08-09T15:11:00.285Z,63.97
2022-08-09T15:13:48.396Z,63.86
2022-08-09T15:16:19.284Z,64.05
2022-08-09T15:18:49.358Z,63.90
2022-08-09T15:21:54.982Z,63.80
2022-08-09T15:24:13.095Z,63.76
2022-08-09T15:26:46.580Z,63.53
2022-08-09T15:30:57.083Z,63.66
2022-08-09T15:32:04.950Z,63.72
2022-08-09T15:35:01.059Z,63.54
2022-08-09T15:37:56.568Z,63.33
2022-08-09T15:40:32.231Z,62.76
2022-08-09T15:43:02.066Z,62.48
2022-08-09T15:46:08.131Z,62.57
2022-08-09T15:48:28.493Z,61.94
2022-08-09T15:50:59.920Z,61.75
2022-08-09T15:54:07.592Z,61.84
2022-08-09T15:56:21.429Z,61.67
2022-08-09T15:58:57.363Z,61.50
2022-08-09T16:01:26.227Z,61.09
2022-08-09T16:03:54.645Z,60.97
2022-08-09T16:06:35.026Z,60.91
2022-08-09T16:09:07.453Z,60.76
2022-08-09T16:11:36.000Z,60.93
2022-08-09T16:14:08.298Z,60.54
2022-08-09T16:16:39.140Z,60.54
2022-08-09T16:19:13.503Z,60.84
2022-08-09T16:21:51.698Z,60.64
2022-08-09T16:24:32.831Z,60.27
2022-08-09T16:27:04.886Z,59.75
2022-08-09T16:29:37.817Z,59.59
2022-08-09T16:32:49.335Z,59.62
2022-08-09T16:35:07.020Z,59.44
2022-08-09T16:37:53.291Z,59.62
2022-08-09T16:40:30.056Z,59.19
2022-08-09T16:43:09.575Z,59.04
2022-08-09T16:45:43.827Z,59.11
2022-08-09T16:48:41.609Z,58.88
2022-08-09T16:51:07.867Z,58.70
2022-08-09T16:53:47.227Z,58.29
2022-08-09T16:56:26.415Z,57.75
2022-08-09T16:59:01.121Z,57.54
2022-08-09T17:01:36.077Z,57.28
2022-08-09T17:04:05.406Z,56.94
2022-08-09T17:06:47.416Z,57.05
2022-08-09T17:09:45.873Z,56.81
2022-08-09T17:12:12.401Z,56.98
2022-08-09T17:14:47.874Z,56.80
2022-08-09T17:17:26.820Z,56.78
2022-08-09T17:20:28.778Z,57.01
2022-08-09T17:22:51.737Z,56.67
2022-08-09T17:25:22.107Z,56.47
2022-08-09T17:27:53.919Z,56.30
2022-08-09T17:30:26.439Z,55.86
2022-08-09T17:33:04.897Z,55.85
2022-08-09T17:35:36.066Z,55.77
2022-08-09T17:38:25.298Z,55.07
2022-08-09T17:40:58.956Z,54.80
2022-08-09T17:43:34.535Z,54.93
2022-08-09T17:46:09.155Z,54.51
2022-08-09T17:48:51.557Z,54.35
2022-08-09T17:51:21.523Z,53.90
2022-08-09T17:53:52.915Z,53.66
2022-08-09T17:56:27.386Z,53.35
2022-08-09T17:59:03.322Z,53.10
2022-08-09T18:01:40.676Z,53.54
2022-08-09T18:04:27.485Z,52.77
2022-08-09T18:06:56.030Z,52.94
2022-08-09T18:09:41.088Z,52.74
2022-08-09T18:12:20.351Z,52.54
2022-08-09T18:14:53.886Z,51.81
2022-08-09T18:18:03.985Z,51.73
2022-08-09T18:20:53.813Z,52.20
2022-08-09T18:24:10.971Z,51.43
2022-08-09T18:26:46.955Z,51.53
2022-08-09T18:30:41.161Z,50.63
2022-08-09T18:32:06.576Z,50.99
2022-08-09T18:34:37.461Z,50.97
2022-08-09T18:37:10.461Z,50.80
2022-08-09T18:39:57.671Z,50.74
2022-08-09T18:42:29.152Z,50.41
2022-08-09T18:45:01.022Z,50.02
2022-08-09T18:47:32.690Z,50.11
2022-08-09T18:50:09.940Z,50.10
2022-08-09T18:52:39.120Z,50.02
2022-08-09T18:55:13.305Z,49.13
2022-08-09T18:57:44.682Z,48.90
2022-08-09T19:00:20.502Z,48.40
2022-08-09T19:02:51.377Z,48.58
2022-08-09T19:05:49.119Z,48.30
2022-08-09T19:08:14.132Z,48.34
2022-08-09T19:10:47.252Z,48.58
2022-08-09T19:13:20.235Z,48.05
2022-08-09T19:15:55.813Z,48.16
2022-08-09T19:18:33.367Z,48.03
2022-08-09T19:21:09.849Z,47.49
2022-08-09T19:24:37.779Z,47.18
2022-08-09T19:26:34.976Z,47.31
2022-08-09T19:29:15.149Z,47.09
2022-08-09T19:31:51.337Z,47.08
2022-08-09T19:34:24.457Z,47.04
2022-08-09T19:36:56.751Z,46.53
2022-08-09T19:39:43.382Z,46.28
2022-08-09T19:42:19.812Z,46.49
2022-08-09T19:44:51.124Z,46.14
2022-08-09T19:47:23.503Z,45.82
2022-08-09T19:50:09.091Z,45.15
2022-08-09T19:52:49.722Z,45.15
2022-08-09T19:55:30.396Z,45.13
2022-08-09T19:58:16.351Z,45.36
2022-08-09T20:00:47.442Z,45.04
2022-08-09T20:04:18.091Z,44.66
2022-08-09T20:06:22.193Z,43.94
2022-08-09T20:08:56.889Z,44.19
2022-08-09T20:11:42.957Z,43.90
2022-08-09T20:14:18.125Z,43.90
2022-08-09T20:16:53.177Z,44.31
2022-08-09T20:19:49.082Z,43.70
2022-08-09T20:22:14.834Z,42.60
2022-08-09T20:24:53.965Z,43.64
2022-08-09T20:27:23.183Z,43.17
2022-08-09T20:29:51.859Z,43.08
2022-08-09T20:32:29.908Z,42.78
2022-08-09T20:35:01.748Z,42.29
2022-08-09T20:38:19.490Z,41.86
2022-08-09T20:40:27.394Z,42.62
2022-08-09T20:43:17.176Z,41.74
2022-08-09T20:45:59.461Z,41.44
2022-08-09T20:48:31.808Z,41.35
2022-08-09T20:51:03.204Z,41.25
2022-08-09T20:53:36.888Z,41.24
2022-08-09T20:56:08.787Z,40.57
2022-08-09T20:58:38.374Z,40.66
2022-08-09T21:01:32.628Z,40.65
2022-08-09T21:05:49.754Z,41.05
2022-08-09T21:06:51.376Z,39.79
2022-08-09T21:09:41.641Z,39.55
2022-08-09T21:14:40.327Z,39.53
2022-08-09T21:18:23.527Z,39.19
2022-08-09T21:20:17.721Z,38.76
2022-08-09T21:22:52.428Z,39.12
2022-08-09T21:25:44.005Z,38.82
2022-08-09T21:28:34.913Z,38.47
2022-08-09T21:31:17.263Z,37.89
2022-08-09T21:33:51.702Z,38.04
2022-08-09T21:36:28.146Z,38.09
2022-08-09T21:39:00.819Z,38.22
2022-08-09T21:42:05.884Z,37.38
2022-08-09T21:44:34.404Z,36.73
2022-08-09T21:47:09.091Z,37.44
2022-08-09T21:49:43.122Z,37.07
2022-08-09T21:52:14.724Z,36.61
2022-08-09T21:55:02.945Z,36.32
2022-08-09T21:57:58.732Z,36.12
2022-08-09T22:00:34.416Z,35.19
2022-08-09T22:03:07.682Z,35.95
2022-08-09T22:05:51.279Z,35.79
2022-08-09T22:08:23.023Z,35.93
2022-08-09T22:11:04.794Z,35.47
2022-08-09T22:13:43.523Z,35.63
2022-08-09T22:16:12.816Z,35.40
2022-08-09T22:18:53.702Z,35.55
2022-08-09T22:21:49.917Z,35.33
2022-08-09T22:24:24.259Z,35.74
2022-08-09T22:26:54.124Z,35.47
2022-08-09T22:29:28.420Z,34.93
2022-08-09T22:32:00.749Z,35.44
2022-08-09T22:34:29.615Z,34.76
2022-08-09T22:36:59.376Z,35.33
2022-08-09T22:39:56.347Z,35.03
2022-08-09T22:42:22.242Z,35.10
2022-08-09T22:45:00.007Z,34.62
2022-08-09T22:48:11.072Z,34.48
2022-08-09T22:50:32.983Z,34.65
2022-08-09T22:53:03.817Z,34.82
2022-08-09T22:56:06.283Z,33.84
2022-08-09T22:58:32.438Z,35.01
2022-08-09T23:01:03.913Z,35.65
2022-08-09T23:04:03.935Z,35.51
2022-08-09T23:06:34.891Z,35.28
2022-08-09T23:09:06.371Z,35.59
2022-08-09T23:11:35.340Z,35.70
2022-08-09T23:14:10.266Z,35.99
2022-08-09T23:16:46.420Z,36.25
2022-08-09T23:19:15.096Z,36.84
2022-08-09T23:21:43.697Z,36.78
2022-08-09T23:24:12.179Z,37.18
2022-08-09T23:26:41.775Z,36.97
2022-08-09T23:29:14.450Z,37.27
2022-08-09T23:31:43.405Z,37.31
2022-08-09T23:34:11.960Z,37.64
2022-08-09T23:36:40.471Z,38.12
2022-08-09T23:39:09.844Z,38.21
2022-08-09T23:41:38.256Z,38.61
2022-08-09T23:44:06.899Z,38.79
2022-08-09T23:46:35.630Z,38.90
2022-08-09T23:49:04.513Z,39.01
2022-08-09T23:51:33.005Z,39.50
2022-08-09T23:54:02.953Z,39.59
2022-08-09T23:56:53.378Z,39.88
2022-08-09T23:59:25.640Z,39.97
